Terminal Aerodrome Forecast
Issued by NWS

Home | Current Version | Previous Version | Text Only | Print | Product List | Glossary Off
Versions: 1 2 3 4 5 6 7 8 9 10 11 12 13 14 15 16 17 18 19 20 21 22 23 24 25

000
FTUS43 KLOT 182327
TAFGYY
TAF
KGYY 182327Z 1900/1924 20011G17KT P6SM FEW250
     FM190100 20010KT P6SM SCT250 WS020/22040KT
     FM190600 23007KT P6SM FEW250
     FM191300 29005KT P6SM FEW250
     FM191800 04005KT P6SM SCT250=

USA.gov is the U.S. government's official web portal to all federal, state and local government web resources and services.